sensor_id;sensor_type;location;lat;lon;timestamp;pressure;altitude;pressure_sealevel;temperature;humidity
54816;BME280;40715;55.752;37.884;2023-07-16T00:00:02;98723.16;;;31.76;30.91
54816;BME280;40715;55.752;37.884;2023-07-16T00:02:32;98726.28;;;31.73;30.54
54816;BME280;40715;55.752;37.884;2023-07-16T00:04:59;98722.69;;;31.72;30.58
54816;BME280;40715;55.752;37.884;2023-07-16T00:07:30;98726.47;;;31.71;30.84
54816;BME280;40715;55.752;37.884;2023-07-16T00:09:57;98723.75;;;31.71;30.81
54816;BME280;40715;55.752;37.884;2023-07-16T00:12:24;98726.66;;;31.70;30.77
54816;BME280;40715;55.752;37.884;2023-07-16T00:14:51;98732.09;;;31.70;30.92
54816;BME280;40715;55.752;37.884;2023-07-16T00:17:18;98732.75;;;31.72;30.47
54816;BME280;40715;55.752;37.884;2023-07-16T00:19:45;98724.13;;;31.68;30.80
54816;BME280;40715;55.752;37.884;2023-07-16T00:22:13;98726.84;;;31.68;30.92
54816;BME280;40715;55.752;37.884;2023-07-16T00:24:40;98727.69;;;31.69;30.59
54816;BME280;40715;55.752;37.884;2023-07-16T00:27:07;98727.44;;;31.63;30.92
54816;BME280;40715;55.752;37.884;2023-07-16T00:29:34;98730.63;;;31.67;30.62
54816;BME280;40715;55.752;37.884;2023-07-16T00:32:01;98735.00;;;31.68;30.54
54816;BME280;40715;55.752;37.884;2023-07-16T00:34:28;98735.22;;;31.66;30.79
54816;BME280;40715;55.752;37.884;2023-07-16T00:36:55;98737.72;;;31.68;30.98
54816;BME280;40715;55.752;37.884;2023-07-16T00:39:31;98738.13;;;31.65;31.05
54816;BME280;40715;55.752;37.884;2023-07-16T00:41:58;98734.38;;;31.66;30.71
54816;BME280;40715;55.752;37.884;2023-07-16T00:44:25;98732.69;;;31.65;30.56
54816;BME280;40715;55.752;37.884;2023-07-16T00:46:52;98736.91;;;31.67;30.65
54816;BME280;40715;55.752;37.884;2023-07-16T00:49:19;98735.22;;;31.66;31.00
54816;BME280;40715;55.752;37.884;2023-07-16T00:51:46;98735.22;;;31.66;30.99
54816;BME280;40715;55.752;37.884;2023-07-16T00:54:13;98748.00;;;31.66;31.01
54816;BME280;40715;55.752;37.884;2023-07-16T00:56:41;98747.34;;;31.64;30.54
54816;BME280;40715;55.752;37.884;2023-07-16T00:59:08;98745.47;;;31.64;30.53
54816;BME280;40715;55.752;37.884;2023-07-16T01:01:36;98740.22;;;31.63;30.79
54816;BME280;40715;55.752;37.884;2023-07-16T01:04:04;98749.59;;;31.60;30.88
54816;BME280;40715;55.752;37.884;2023-07-16T01:06:40;98748.38;;;31.63;31.03
54816;BME280;40715;55.752;37.884;2023-07-16T01:09:14;98754.84;;;31.62;30.97
54816;BME280;40715;55.752;37.884;2023-07-16T01:11:43;98762.19;;;31.61;30.74
54816;BME280;40715;55.752;37.884;2023-07-16T01:14:16;98768.47;;;31.62;30.67
54816;BME280;40715;55.752;37.884;2023-07-16T01:16:44;98746.25;;;31.58;30.58
54816;BME280;40715;55.752;37.884;2023-07-16T01:19:11;98766.56;;;31.62;30.56
54816;BME280;40715;55.752;37.884;2023-07-16T01:24:59;98767.97;;;31.73;30.80
54816;BME280;40715;55.752;37.884;2023-07-16T01:30:14;98774.28;;;31.59;30.96
54816;BME280;40715;55.752;37.884;2023-07-16T01:32:46;98782.47;;;31.59;30.86
54816;BME280;40715;55.752;37.884;2023-07-16T01:35:14;98772.75;;;31.56;31.04
54816;BME280;40715;55.752;37.884;2023-07-16T01:37:42;98777.22;;;31.57;30.93
54816;BME280;40715;55.752;37.884;2023-07-16T01:40:09;98777.84;;;31.59;30.85
54816;BME280;40715;55.752;37.884;2023-07-16T01:42:37;98777.38;;;31.56;30.87
54816;BME280;40715;55.752;37.884;2023-07-16T01:45:04;98774.47;;;31.57;30.96
54816;BME280;40715;55.752;37.884;2023-07-16T01:50:27;98789.03;;;31.64;30.95
54816;BME280;40715;55.752;37.884;2023-07-16T01:52:54;98792.97;;;31.62;30.68
54816;BME280;40715;55.752;37.884;2023-07-16T01:55:21;98783.00;;;31.54;30.68
54816;BME280;40715;55.752;37.884;2023-07-16T01:57:50;98788.94;;;31.58;31.05
54816;BME280;40715;55.752;37.884;2023-07-16T02:00:17;98790.63;;;31.59;30.63
54816;BME280;40715;55.752;37.884;2023-07-16T02:02:44;98791.25;;;31.61;30.74
54816;BME280;40715;55.752;37.884;2023-07-16T02:05:11;98785.63;;;31.62;30.67
54816;BME280;40715;55.752;37.884;2023-07-16T02:07:38;98779.22;;;31.55;30.83
54816;BME280;40715;55.752;37.884;2023-07-16T02:10:05;98788.34;;;31.62;30.77
54816;BME280;40715;55.752;37.884;2023-07-16T02:12:33;98796.50;;;31.62;31.01
54816;BME280;40715;55.752;37.884;2023-07-16T02:15:01;98797.56;;;31.61;30.59
54816;BME280;40715;55.752;37.884;2023-07-16T02:17:32;98791.53;;;31.66;30.61
54816;BME280;40715;55.752;37.884;2023-07-16T02:19:59;98784.34;;;31.58;30.89
54816;BME280;40715;55.752;37.884;2023-07-16T02:22:27;98792.78;;;31.63;30.84
54816;BME280;40715;55.752;37.884;2023-07-16T02:24:54;98798.41;;;31.62;30.91
54816;BME280;40715;55.752;37.884;2023-07-16T02:27:20;98799.06;;;31.64;30.56
54816;BME280;40715;55.752;37.884;2023-07-16T02:29:48;98799.91;;;31.64;30.60
54816;BME280;40715;55.752;37.884;2023-07-16T02:32:15;98809.59;;;31.67;30.62
54816;BME280;40715;55.752;37.884;2023-07-16T02:34:42;98798.22;;;31.63;30.40
54816;BME280;40715;55.752;37.884;2023-07-16T02:37:09;98802.63;;;31.64;30.86
54816;BME280;40715;55.752;37.884;2023-07-16T02:39:35;98800.34;;;31.68;30.49
54816;BME280;40715;55.752;37.884;2023-07-16T02:42:03;98804.53;;;31.64;30.37
54816;BME280;40715;55.752;37.884;2023-07-16T02:44:30;98802.16;;;31.61;30.54
54816;BME280;40715;55.752;37.884;2023-07-16T02:46:57;98806.84;;;31.67;30.78
54816;BME280;40715;55.752;37.884;2023-07-16T02:49:24;98810.22;;;31.69;30.39
54816;BME280;40715;55.752;37.884;2023-07-16T02:51:51;98807.50;;;31.69;30.29
54816;BME280;40715;55.752;37.884;2023-07-16T02:54:18;98809.00;;;31.72;30.78
54816;BME280;40715;55.752;37.884;2023-07-16T02:56:45;98804.38;;;31.72;30.40
54816;BME280;40715;55.752;37.884;2023-07-16T02:59:15;98808.34;;;31.70;30.60
54816;BME280;40715;55.752;37.884;2023-07-16T03:01:42;98809.19;;;31.70;30.48
54816;BME280;40715;55.752;37.884;2023-07-16T03:04:09;98814.44;;;31.72;30.83
54816;BME280;40715;55.752;37.884;2023-07-16T03:06:36;98819.91;;;31.72;30.61
54816;BME280;40715;55.752;37.884;2023-07-16T03:09:04;98816.50;;;31.70;30.38
54816;BME280;40715;55.752;37.884;2023-07-16T03:11:31;98820.91;;;31.71;30.47
54816;BME280;40715;55.752;37.884;2023-07-16T03:13:57;98815.28;;;31.72;30.61
54816;BME280;40715;55.752;37.884;2023-07-16T03:16:24;98818.00;;;31.72;30.39
54816;BME280;40715;55.752;37.884;2023-07-16T03:18:52;98818.19;;;31.71;30.74
54816;BME280;40715;55.752;37.884;2023-07-16T03:21:20;98815.94;;;31.74;30.56
54816;BME280;40715;55.752;37.884;2023-07-16T03:23:47;98819.50;;;31.75;30.66
54816;BME280;40715;55.752;37.884;2023-07-16T03:26:14;98811.06;;;31.70;30.28
54816;BME280;40715;55.752;37.884;2023-07-16T03:28:41;98821.19;;;31.76;30.73
54816;BME280;40715;55.752;37.884;2023-07-16T03:31:08;98820.34;;;31.75;30.64
54816;BME280;40715;55.752;37.884;2023-07-16T03:33:35;98826.47;;;31.77;30.24
54816;BME280;40715;55.752;37.884;2023-07-16T03:36:02;98820.81;;;31.79;30.70
54816;BME280;40715;55.752;37.884;2023-07-16T03:38:29;98822.50;;;31.80;30.37
54816;BME280;40715;55.752;37.884;2023-07-16T03:40:56;98830.69;;;31.80;30.29
54816;BME280;40715;55.752;37.884;2023-07-16T03:43:23;98828.34;;;31.77;30.33
54816;BME280;40715;55.752;37.884;2023-07-16T03:45:50;98834.91;;;31.82;30.18
54816;BME280;40715;55.752;37.884;2023-07-16T03:48:17;98840.72;;;31.79;30.36
54816;BME280;40715;55.752;37.884;2023-07-16T03:50:46;98844.94;;;31.82;30.43
54816;BME280;40715;55.752;37.884;2023-07-16T03:53:13;98845.97;;;31.81;30.69
54816;BME280;40715;55.752;37.884;2023-07-16T03:55:40;98844.75;;;31.83;30.30
54816;BME280;40715;55.752;37.884;2023-07-16T03:58:07;98842.03;;;31.83;30.36
54816;BME280;40715;55.752;37.884;2023-07-16T04:00:34;98844.75;;;31.83;30.18
54816;BME280;40715;55.752;37.884;2023-07-16T04:03:01;98850.00;;;31.85;30.21
54816;BME280;40715;55.752;37.884;2023-07-16T04:05:28;98844.56;;;31.85;30.49
54816;BME280;40715;55.752;37.884;2023-07-16T04:07:55;98848.78;;;31.88;30.38
54816;BME280;40715;55.752;37.884;2023-07-16T04:10:22;98841.44;;;31.88;30.21
54816;BME280;40715;55.752;37.884;2023-07-16T04:12:49;98848.41;;;31.91;30.14
54816;BME280;40715;55.752;37.884;2023-07-16T04:15:16;98843.63;;;31.93;30.01
54816;BME280;40715;55.752;37.884;2023-07-16T04:17:43;98841.72;;;31.93;30.24
54816;BME280;40715;55.752;37.884;2023-07-16T04:20:10;98850.72;;;31.94;30.37
54816;BME280;40715;55.752;37.884;2023-07-16T04:22:37;98847.16;;;31.93;30.11
54816;BME280;40715;55.752;37.884;2023-07-16T04:25:05;98850.56;;;31.95;30.12
54816;BME280;40715;55.752;37.884;2023-07-16T04:27:32;98846.97;;;31.95;30.44
54816;BME280;40715;55.752;37.884;2023-07-16T04:29:59;98842.41;;;31.95;30.22
54816;BME280;40715;55.752;37.884;2023-07-16T04:32:26;98852.03;;;31.98;30.37
54816;BME280;40715;55.752;37.884;2023-07-16T04:34:53;98852.03;;;31.98;30.22
54816;BME280;40715;55.752;37.884;2023-07-16T04:37:20;98851.00;;;31.99;30.34
54816;BME280;40715;55.752;37.884;2023-07-16T04:39:47;98853.53;;;32.00;30.03
54816;BME280;40715;55.752;37.884;2023-07-16T04:42:14;98854.75;;;31.98;30.00
54816;BME280;40715;55.752;37.884;2023-07-16T04:44:43;98860.00;;;31.99;30.24
54816;BME280;40715;55.752;37.884;2023-07-16T04:47:10;98852.91;;;31.98;30.39
54816;BME280;40715;55.752;37.884;2023-07-16T04:49:37;98858.16;;;32.00;29.95
54816;BME280;40715;55.752;37.884;2023-07-16T04:52:04;98852.72;;;32.00;30.29
54816;BME280;40715;55.752;37.884;2023-07-16T04:54:36;98857.13;;;32.01;29.98
54816;BME280;40715;55.752;37.884;2023-07-16T04:57:07;98856.94;;;32.03;30.36
54816;BME280;40715;55.752;37.884;2023-07-16T04:59:34;98850.22;;;32.05;30.30
54816;BME280;40715;55.752;37.884;2023-07-16T05:02:05;98846.69;;;32.05;30.00
54816;BME280;40715;55.752;37.884;2023-07-16T05:04:35;98845.84;;;32.04;30.30
54816;BME280;40715;55.752;37.884;2023-07-16T05:07:02;98846.47;;;32.06;29.97
54816;BME280;40715;55.752;37.884;2023-07-16T05:09:30;98849.88;;;32.08;29.80
54816;BME280;40715;55.752;37.884;2023-07-16T05:11:57;98847.16;;;32.08;29.82
54816;BME280;40715;55.752;37.884;2023-07-16T05:14:26;98845.44;;;32.07;30.14
54816;BME280;40715;55.752;37.884;2023-07-16T05:16:54;98851.34;;;32.11;29.79
54816;BME280;40715;55.752;37.884;2023-07-16T05:19:21;98843.16;;;32.11;30.00
54816;BME280;40715;55.752;37.884;2023-07-16T05:21:48;98856.59;;;32.12;30.10
54816;BME280;40715;55.752;37.884;2023-07-16T05:24:15;98853.22;;;32.10;29.78
54816;BME280;40715;55.752;37.884;2023-07-16T05:26:42;98857.31;;;32.14;30.09
54816;BME280;40715;55.752;37.884;2023-07-16T05:29:09;98855.41;;;32.15;29.83
54816;BME280;40715;55.752;37.884;2023-07-16T05:31:36;98848.94;;;32.16;30.10
54816;BME280;40715;55.752;37.884;2023-07-16T05:34:03;98858.59;;;32.18;29.98
54816;BME280;40715;55.752;37.884;2023-07-16T05:36:30;98857.56;;;32.20;29.59
54816;BME280;40715;55.752;37.884;2023-07-16T05:38:57;98860.75;;;32.23;29.68
54816;BME280;40715;55.752;37.884;2023-07-16T05:41:24;98854.06;;;32.26;29.51
54816;BME280;40715;55.752;37.884;2023-07-16T05:43:51;98861.03;;;32.28;30.01
54816;BME280;40715;55.752;37.884;2023-07-16T05:46:18;98854.31;;;32.31;29.79
54816;BME280;40715;55.752;37.884;2023-07-16T05:48:46;98859.59;;;32.32;29.85
54816;BME280;40715;55.752;37.884;2023-07-16T05:51:13;98856.69;;;32.34;29.47
54816;BME280;40715;55.752;37.884;2023-07-16T05:53:40;98860.03;;;32.36;29.52
54816;BME280;40715;55.752;37.884;2023-07-16T05:56:07;98857.78;;;32.40;29.45
54816;BME280;40715;55.752;37.884;2023-07-16T05:58:34;98857.78;;;32.40;29.56
54816;BME280;40715;55.752;37.884;2023-07-16T06:01:01;98859.09;;;32.44;29.58
54816;BME280;40715;55.752;37.884;2023-07-16T06:03:28;98865.16;;;32.46;29.73
54816;BME280;40715;55.752;37.884;2023-07-16T06:05:55;98851.06;;;32.42;29.25
54816;BME280;40715;55.752;37.884;2023-07-16T06:08:22;98858.94;;;32.52;29.61
54816;BME280;40715;55.752;37.884;2023-07-16T06:10:51;98858.72;;;32.53;29.15
54816;BME280;40715;55.752;37.884;2023-07-16T06:13:18;98859.84;;;32.59;29.52
54816;BME280;40715;55.752;37.884;2023-07-16T06:15:47;98862.75;;;32.58;29.12
54816;BME280;40715;55.752;37.884;2023-07-16T06:18:14;98865.00;;;32.69;29.27
54816;BME280;40715;55.752;37.884;2023-07-16T06:20:44;98858.09;;;32.73;29.33
54816;BME280;40715;55.752;37.884;2023-07-16T06:23:12;98862.97;;;32.78;29.00
54816;BME280;40715;55.752;37.884;2023-07-16T06:25:39;98860.31;;;32.84;29.16
54816;BME280;40715;55.752;37.884;2023-07-16T06:28:07;98871.91;;;32.93;29.00
54816;BME280;40715;55.752;37.884;2023-07-16T06:30:34;98867.75;;;32.97;28.97
54816;BME280;40715;55.752;37.884;2023-07-16T06:33:01;98876.13;;;32.96;28.72
54816;BME280;40715;55.752;37.884;2023-07-16T06:35:28;98875.31;;;32.95;28.81
54816;BME280;40715;55.752;37.884;2023-07-16T06:37:55;98877.50;;;33.07;28.76
54816;BME280;40715;55.752;37.884;2023-07-16T06:40:23;98882.56;;;33.16;28.93
54816;BME280;40715;55.752;37.884;2023-07-16T06:42:51;98882.47;;;33.25;28.77
54816;BME280;40715;55.752;37.884;2023-07-16T06:45:18;98889.16;;;33.22;28.72
54816;BME280;40715;55.752;37.884;2023-07-16T06:47:45;98883.88;;;33.20;28.49
54816;BME280;40715;55.752;37.884;2023-07-16T06:50:12;98884.06;;;33.19;28.35
54816;BME280;40715;55.752;37.884;2023-07-16T06:52:39;98889.31;;;33.14;28.77
54816;BME280;40715;55.752;37.884;2023-07-16T06:55:06;98883.19;;;33.12;28.34
54816;BME280;40715;55.752;37.884;2023-07-16T06:57:33;98881.75;;;33.16;28.48
54816;BME280;40715;55.752;37.884;2023-07-16T07:00:01;98882.78;;;33.15;28.47
54816;BME280;40715;55.752;37.884;2023-07-16T07:02:31;98875.50;;;33.22;28.26
54816;BME280;40715;55.752;37.884;2023-07-16T07:04:58;98884.41;;;33.31;28.46
54816;BME280;40715;55.752;37.884;2023-07-16T07:07:26;98883.00;;;33.42;28.13
54816;BME280;40715;55.752;37.884;2023-07-16T07:09:52;98879.03;;;33.44;28.30
54816;BME280;40715;55.752;37.884;2023-07-16T07:12:19;98890.56;;;33.46;28.09
54816;BME280;40715;55.752;37.884;2023-07-16T07:14:47;98878.81;;;33.46;28.43
54816;BME280;40715;55.752;37.884;2023-07-16T07:17:14;98886.75;;;33.41;28.46
54816;BME280;40715;55.752;37.884;2023-07-16T07:19:42;98890.31;;;33.34;28.48
54816;BME280;40715;55.752;37.884;2023-07-16T07:22:10;98891.94;;;33.29;28.36
54816;BME280;40715;55.752;37.884;2023-07-16T07:24:37;98889.63;;;33.26;28.60
54816;BME280;40715;55.752;37.884;2023-07-16T07:27:04;98894.88;;;33.27;28.39
54816;BME280;40715;55.752;37.884;2023-07-16T07:29:31;98895.41;;;33.44;28.23
54816;BME280;40715;55.752;37.884;2023-07-16T07:31:58;98896.69;;;33.48;27.85
54816;BME280;40715;55.752;37.884;2023-07-16T07:34:27;98891.19;;;33.42;28.18
54816;BME280;40715;55.752;37.884;2023-07-16T07:36:53;98890.09;;;33.36;28.39
54816;BME280;40715;55.752;37.884;2023-07-16T07:39:20;98889.13;;;33.50;28.06
54816;BME280;40715;55.752;37.884;2023-07-16T07:41:47;98886.19;;;33.52;27.91
54816;BME280;40715;55.752;37.884;2023-07-16T07:44:14;98898.34;;;33.43;28.20
54816;BME280;40715;55.752;37.884;2023-07-16T07:46:41;98895.75;;;33.34;28.46
54816;BME280;40715;55.752;37.884;2023-07-16T07:49:08;98894.47;;;33.30;28.08
54816;BME280;40715;55.752;37.884;2023-07-16T07:51:35;98891.50;;;33.25;28.56
54816;BME280;40715;55.752;37.884;2023-07-16T07:54:02;98897.19;;;33.24;28.46
54816;BME280;40715;55.752;37.884;2023-07-16T07:56:29;98900.53;;;33.26;28.45
54816;BME280;40715;55.752;37.884;2023-07-16T07:58:57;98899.78;;;33.38;28.41
54816;BME280;40715;55.752;37.884;2023-07-16T08:01:24;98896.53;;;33.57;28.03
54816;BME280;40715;55.752;37.884;2023-07-16T08:03:51;98898.88;;;33.60;27.98
54816;BME280;40715;55.752;37.884;2023-07-16T08:06:18;98892.72;;;33.51;27.95
54816;BME280;40715;55.752;37.884;2023-07-16T08:08:45;98895.47;;;33.51;27.95
54816;BME280;40715;55.752;37.884;2023-07-16T08:11:12;98903.28;;;33.61;27.75
54816;BME280;40715;55.752;37.884;2023-07-16T08:13:39;98906.25;;;33.66;27.88
54816;BME280;40715;55.752;37.884;2023-07-16T08:16:06;98895.31;;;33.66;28.01
54816;BME280;40715;55.752;37.884;2023-07-16T08:18:33;98891.34;;;33.68;27.68
54816;BME280;40715;55.752;37.884;2023-07-16T08:21:00;98887.63;;;33.76;27.62
54816;BME280;40715;55.752;37.884;2023-07-16T08:23:27;98892.50;;;33.81;27.64
54816;BME280;40715;55.752;37.884;2023-07-16T08:25:54;98893.25;;;34.10;27.34
54816;BME280;40715;55.752;37.884;2023-07-16T08:28:21;98893.91;;;34.18;27.12
54816;BME280;40715;55.752;37.884;2023-07-16T08:30:48;98885.81;;;34.58;26.69
54816;BME280;40715;55.752;37.884;2023-07-16T08:33:15;98888.16;;;35.29;25.76
54816;BME280;40715;55.752;37.884;2023-07-16T08:35:42;98892.56;;;35.23;25.93
54816;BME280;40715;55.752;37.884;2023-07-16T08:38:10;98895.13;;;34.84;26.25
54816;BME280;40715;55.752;37.884;2023-07-16T08:40:38;98888.75;;;34.57;26.62
54816;BME280;40715;55.752;37.884;2023-07-16T08:43:06;98888.97;;;34.69;26.63
54816;BME280;40715;55.752;37.884;2023-07-16T08:45:40;98888.78;;;35.37;25.49
54816;BME280;40715;55.752;37.884;2023-07-16T08:48:09;98888.00;;;36.02;25.00
54816;BME280;40715;55.752;37.884;2023-07-16T08:50:37;98888.47;;;36.38;24.30
54816;BME280;40715;55.752;37.884;2023-07-16T08:53:05;98884.59;;;36.07;24.65
54816;BME280;40715;55.752;37.884;2023-07-16T08:55:33;98899.47;;;35.66;24.98
54816;BME280;40715;55.752;37.884;2023-07-16T08:58:01;98893.72;;;35.94;25.23
54816;BME280;40715;55.752;37.884;2023-07-16T09:00:29;98899.25;;;36.33;24.34
54816;BME280;40715;55.752;37.884;2023-07-16T09:02:57;98894.81;;;36.70;24.28
54816;BME280;40715;55.752;37.884;2023-07-16T09:05:24;98887.53;;;36.83;23.93
54816;BME280;40715;55.752;37.884;2023-07-16T09:08:05;98888.78;;;36.55;24.12
54816;BME280;40715;55.752;37.884;2023-07-16T09:10:33;98885.69;;;35.99;24.42
54816;BME280;40715;55.752;37.884;2023-07-16T09:13:01;98889.84;;;36.08;24.80
54816;BME280;40715;55.752;37.884;2023-07-16T09:15:29;98886.66;;;36.18;24.28
54816;BME280;40715;55.752;37.884;2023-07-16T09:17:56;98885.94;;;35.91;24.82
54816;BME280;40715;55.752;37.884;2023-07-16T09:20:23;98885.88;;;36.04;24.62
54816;BME280;40715;55.752;37.884;2023-07-16T09:22:54;98882.78;;;36.33;24.43
54816;BME280;40715;55.752;37.884;2023-07-16T09:25:30;98890.88;;;36.59;24.00
54816;BME280;40715;55.752;37.884;2023-07-16T09:28:02;98884.13;;;36.55;24.05
54816;BME280;40715;55.752;37.884;2023-07-16T09:30:33;98887.41;;;36.39;24.40
54816;BME280;40715;55.752;37.884;2023-07-16T09:33:17;98887.81;;;36.42;24.29
54816;BME280;40715;55.752;37.884;2023-07-16T09:35:44;98893.13;;;36.37;23.92
54816;BME280;40715;55.752;37.884;2023-07-16T09:38:11;98877.34;;;36.26;24.27
54816;BME280;40715;55.752;37.884;2023-07-16T09:40:39;98885.06;;;35.97;25.01
54816;BME280;40715;55.752;37.884;2023-07-16T09:43:13;98887.09;;;35.56;25.45
54816;BME280;40715;55.752;37.884;2023-07-16T09:45:42;98886.50;;;35.21;25.85
54816;BME280;40715;55.752;37.884;2023-07-16T09:48:10;98889.22;;;34.94;25.94
54816;BME280;40715;55.752;37.884;2023-07-16T09:50:38;98882.69;;;34.75;26.07
54816;BME280;40715;55.752;37.884;2023-07-16T09:53:09;98897.59;;;34.66;26.27
54816;BME280;40715;55.752;37.884;2023-07-16T09:55:37;98891.09;;;34.53;26.42
54816;BME280;40715;55.752;37.884;2023-07-16T09:58:09;98876.53;;;34.39;26.47
54816;BME280;40715;55.752;37.884;2023-07-16T10:00:39;98900.72;;;34.43;26.87
54816;BME280;40715;55.752;37.884;2023-07-16T10:03:08;98900.91;;;34.28;26.76
54816;BME280;40715;55.752;37.884;2023-07-16T10:05:36;98893.44;;;34.15;27.00
54816;BME280;40715;55.752;37.884;2023-07-16T10:08:04;98891.56;;;34.15;27.00
54816;BME280;40715;55.752;37.884;2023-07-16T10:10:42;98889.50;;;34.24;26.95
54816;BME280;40715;55.752;37.884;2023-07-16T10:13:13;98880.88;;;34.27;26.79
54816;BME280;40715;55.752;37.884;2023-07-16T10:15:54;98878.63;;;34.31;26.84
54816;BME280;40715;55.752;37.884;2023-07-16T10:21:03;98893.91;;;34.18;27.10
54816;BME280;40715;55.752;37.884;2023-07-16T10:23:43;98889.88;;;34.14;27.18
54816;BME280;40715;55.752;37.884;2023-07-16T10:26:13;98896.81;;;34.03;26.99
54816;BME280;40715;55.752;37.884;2023-07-16T10:28:45;98891.72;;;34.00;27.41
54816;BME280;40715;55.752;37.884;2023-07-16T10:31:25;98881.44;;;34.02;27.43
54816;BME280;40715;55.752;37.884;2023-07-16T10:33:59;98879.97;;;34.00;27.28
54816;BME280;40715;55.752;37.884;2023-07-16T10:36:26;98881.66;;;34.01;27.11
54816;BME280;40715;55.752;37.884;2023-07-16T10:38:53;98884.78;;;33.98;27.44
54816;BME280;40715;55.752;37.884;2023-07-16T10:41:20;98884.13;;;33.96;27.17
54816;BME280;40715;55.752;37.884;2023-07-16T10:43:47;98892.09;;;33.91;27.33
54816;BME280;40715;55.752;37.884;2023-07-16T10:46:15;98896.31;;;33.93;27.31
54816;BME280;40715;55.752;37.884;2023-07-16T10:48:46;98898.63;;;33.89;27.33
54816;BME280;40715;55.752;37.884;2023-07-16T10:51:15;98903.03;;;33.91;27.17
54816;BME280;40715;55.752;37.884;2023-07-16T10:53:43;98896.09;;;33.88;27.54
54816;BME280;40715;55.752;37.884;2023-07-16T10:56:11;98898.38;;;33.84;27.49
54816;BME280;40715;55.752;37.884;2023-07-16T10:58:38;98903.84;;;33.84;27.66
54816;BME280;40715;55.752;37.884;2023-07-16T11:01:08;98897.75;;;33.82;27.60
54816;BME280;40715;55.752;37.884;2023-07-16T11:03:35;98893.34;;;33.81;27.61
54816;BME280;40715;55.752;37.884;2023-07-16T11:06:08;98895.81;;;33.76;27.84
54816;BME280;40715;55.752;37.884;2023-07-16T11:08:35;98897.50;;;33.77;27.80
54816;BME280;40715;55.752;37.884;2023-07-16T11:11:02;98898.94;;;33.73;27.69
54816;BME280;40715;55.752;37.884;2023-07-16T11:13:31;98895.78;;;33.69;27.73
54816;BME280;40715;55.752;37.884;2023-07-16T11:16:09;98897.06;;;33.74;27.64
54816;BME280;40715;55.752;37.884;2023-07-16T11:18:37;98895.13;;;33.67;27.87
54816;BME280;40715;55.752;37.884;2023-07-16T11:21:04;98895.31;;;33.66;27.65
54816;BME280;40715;55.752;37.884;2023-07-16T11:23:35;98899.28;;;33.63;27.78
54816;BME280;40715;55.752;37.884;2023-07-16T11:26:03;98887.13;;;33.66;27.60
54816;BME280;40715;55.752;37.884;2023-07-16T11:28:41;98884.84;;;33.69;27.97
54816;BME280;40715;55.752;37.884;2023-07-16T11:31:16;98879.59;;;33.68;28.03
54816;BME280;40715;55.752;37.884;2023-07-16T11:33:45;98872.44;;;33.67;27.54
54816;BME280;40715;55.752;37.884;2023-07-16T11:36:12;98885.63;;;33.63;27.62
54816;BME280;40715;55.752;37.884;2023-07-16T11:38:40;98883.97;;;33.62;27.83
54816;BME280;40715;55.752;37.884;2023-07-16T11:41:07;98881.44;;;33.61;27.70
54816;BME280;40715;55.752;37.884;2023-07-16T11:43:35;98883.72;;;33.57;27.99
54816;BME280;40715;55.752;37.884;2023-07-16T11:46:05;98877.44;;;33.57;27.91
54816;BME280;40715;55.752;37.884;2023-07-16T11:48:41;98887.50;;;33.56;28.09
54816;BME280;40715;55.752;37.884;2023-07-16T11:51:08;98892.72;;;33.51;27.85
54816;BME280;40715;55.752;37.884;2023-07-16T11:53:35;98884.53;;;33.51;28.16
54816;BME280;40715;55.752;37.884;2023-07-16T11:56:05;98889.78;;;33.52;27.98
54816;BME280;40715;55.752;37.884;2023-07-16T11:58:32;98885.13;;;33.46;28.19
54816;BME280;40715;55.752;37.884;2023-07-16T12:00:59;98894.59;;;33.50;27.98
54816;BME280;40715;55.752;37.884;2023-07-16T12:03:26;98893.75;;;33.50;28.16
54816;BME280;40715;55.752;37.884;2023-07-16T12:05:53;98891.88;;;33.50;28.06
54816;BME280;40715;55.752;37.884;2023-07-16T12:08:20;98883.88;;;33.49;28.15
54816;BME280;40715;55.752;37.884;2023-07-16T12:10:47;98879.84;;;33.45;27.85
54816;BME280;40715;55.752;37.884;2023-07-16T12:13:14;98884.28;;;33.46;27.92
54816;BME280;40715;55.752;37.884;2023-07-16T12:15:41;98880.72;;;33.45;28.00
54816;BME280;40715;55.752;37.884;2023-07-16T12:18:08;98879.22;;;33.43;28.20
54816;BME280;40715;55.752;37.884;2023-07-16T12:20:35;98882.38;;;33.40;28.09
54816;BME280;40715;55.752;37.884;2023-07-16T12:23:06;98878.97;;;33.37;28.12
54816;BME280;40715;55.752;37.884;2023-07-16T12:25:33;98869.06;;;33.30;28.00
54816;BME280;40715;55.752;37.884;2023-07-16T12:28:01;98873.28;;;33.32;28.56
54816;BME280;40715;55.752;37.884;2023-07-16T12:30:28;98870.75;;;33.31;28.16
54816;BME280;40715;55.752;37.884;2023-07-16T12:32:56;98865.88;;;33.26;28.31
54816;BME280;40715;55.752;37.884;2023-07-16T12:35:23;98868.41;;;33.28;28.61
54816;BME280;40715;55.752;37.884;2023-07-16T12:37:50;98864.84;;;33.27;28.54
54816;BME280;40715;55.752;37.884;2023-07-16T12:40:17;98867.56;;;33.27;28.64
54816;BME280;40715;55.752;37.884;2023-07-16T12:42:45;98865.47;;;33.29;28.31
54816;BME280;40715;55.752;37.884;2023-07-16T12:45:12;98869.28;;;33.28;28.58
54816;BME280;40715;55.752;37.884;2023-07-16T12:47:39;98862.31;;;33.26;28.55
54816;BME280;40715;55.752;37.884;2023-07-16T12:50:07;98864.84;;;33.27;28.67
54816;BME280;40715;55.752;37.884;2023-07-16T12:52:34;98874.28;;;33.25;28.72
54816;BME280;40715;55.752;37.884;2023-07-16T12:55:02;98856.75;;;33.12;28.46
54816;BME280;40715;55.752;37.884;2023-07-16T12:57:30;98867.50;;;33.20;28.50
54816;BME280;40715;55.752;37.884;2023-07-16T12:59:57;98859.31;;;33.20;28.44
54816;BME280;40715;55.752;37.884;2023-07-16T13:02:24;98852.38;;;33.18;28.82
54816;BME280;40715;55.752;37.884;2023-07-16T13:04:51;98861.59;;;33.17;28.60